Caney, Kentucky
Current Conditions -  °F | °C
As of 1:53 AM on Friday 31 Oct 2014 (Local Time) from KJKL Reporting Station
Clear Clear  
Wind Chill: 40°   Ceiling: Unl
Heat Index: 40°   Visibility: 10mi
Dew Point: 33°   Wind: 0mph
Humidity: 77%   Direction: NA
Pressure: 30.02"   Gusts: NA
Location:  37.937°N, 83.2694°W
Report Text: KJKL 310553Z AUTO 00000KT 10SM CLR 04/01 A3002 RMK AO2 SLP166 T00440006 10078 20044 58009
Loading
Personal Weather Stations






























Interactive Weather Map
Tropical Storm Tracking
New forecast layout! Learn more

10-Day Weather Forecast

Advertisements
Track Severe Weather on mobile